sensor_id;sensor_type;location;lat;lon;timestamp;P1;durP1;ratioP1;P2;durP2;ratioP2
55340;SDS011;58855;44.984;20.158;2022-07-23T00:01:17;30.77;;;12.77;;
55340;SDS011;58855;44.984;20.158;2022-07-23T00:03:43;33.03;;;14.30;;
55340;SDS011;58855;44.984;20.158;2022-07-23T00:06:10;32.00;;;11.75;;
55340;SDS011;58855;44.984;20.158;2022-07-23T00:08:36;23.60;;;10.82;;
55340;SDS011;58855;44.984;20.158;2022-07-23T00:11:02;32.90;;;11.85;;
55340;SDS011;58855;44.984;20.158;2022-07-23T00:13:28;35.00;;;12.80;;
55340;SDS011;58855;44.984;20.158;2022-07-23T00:15:54;30.00;;;12.25;;
55340;SDS011;58855;44.984;20.158;2022-07-23T00:18:21;29.92;;;12.65;;
55340;SDS011;58855;44.984;20.158;2022-07-23T00:20:47;38.17;;;12.55;;
55340;SDS011;58855;44.984;20.158;2022-07-23T00:23:13;25.60;;;11.27;;
55340;SDS011;58855;44.984;20.158;2022-07-23T00:25:39;30.67;;;11.77;;
55340;SDS011;58855;44.984;20.158;2022-07-23T00:28:05;23.55;;;8.82;;
55340;SDS011;58855;44.984;20.158;2022-07-23T00:30:32;21.95;;;7.97;;
55340;SDS011;58855;44.984;20.158;2022-07-23T00:32:59;18.20;;;7.32;;
55340;SDS011;58855;44.984;20.158;2022-07-23T00:35:27;16.83;;;6.88;;
55340;SDS011;58855;44.984;20.158;2022-07-23T00:37:54;14.60;;;7.30;;
55340;SDS011;58855;44.984;20.158;2022-07-23T00:40:21;16.77;;;7.43;;
55340;SDS011;58855;44.984;20.158;2022-07-23T00:42:47;24.23;;;7.55;;
55340;SDS011;58855;44.984;20.158;2022-07-23T00:45:13;17.13;;;6.80;;
55340;SDS011;58855;44.984;20.158;2022-07-23T00:47:39;14.85;;;6.63;;
55340;SDS011;58855;44.984;20.158;2022-07-23T00:50:06;14.20;;;6.03;;
55340;SDS011;58855;44.984;20.158;2022-07-23T00:52:33;11.93;;;5.95;;
55340;SDS011;58855;44.984;20.158;2022-07-23T00:55:00;17.77;;;5.90;;
55340;SDS011;58855;44.984;20.158;2022-07-23T00:57:26;16.15;;;5.53;;
55340;SDS011;58855;44.984;20.158;2022-07-23T00:59:52;12.07;;;5.95;;
55340;SDS011;58855;44.984;20.158;2022-07-23T01:02:18;15.75;;;6.03;;
55340;SDS011;58855;44.984;20.158;2022-07-23T01:04:44;11.18;;;5.55;;
55340;SDS011;58855;44.984;20.158;2022-07-23T01:07:11;14.05;;;5.57;;
55340;SDS011;58855;44.984;20.158;2022-07-23T01:09:37;12.13;;;5.78;;
55340;SDS011;58855;44.984;20.158;2022-07-23T01:12:03;13.45;;;5.88;;
55340;SDS011;58855;44.984;20.158;2022-07-23T01:14:30;15.93;;;6.32;;
55340;SDS011;58855;44.984;20.158;2022-07-23T01:16:56;13.48;;;5.57;;
55340;SDS011;58855;44.984;20.158;2022-07-23T01:19:22;14.77;;;6.38;;
55340;SDS011;58855;44.984;20.158;2022-07-23T01:21:50;14.65;;;6.18;;
55340;SDS011;58855;44.984;20.158;2022-07-23T01:24:16;14.85;;;6.28;;
55340;SDS011;58855;44.984;20.158;2022-07-23T01:26:46;15.63;;;5.90;;
55340;SDS011;58855;44.984;20.158;2022-07-23T01:29:12;15.77;;;5.70;;
55340;SDS011;58855;44.984;20.158;2022-07-23T01:31:39;12.10;;;6.10;;
55340;SDS011;58855;44.984;20.158;2022-07-23T01:34:05;16.92;;;5.85;;
55340;SDS011;58855;44.984;20.158;2022-07-23T01:36:32;12.50;;;6.30;;
55340;SDS011;58855;44.984;20.158;2022-07-23T01:38:58;19.63;;;6.80;;
55340;SDS011;58855;44.984;20.158;2022-07-23T01:41:24;25.83;;;9.27;;
55340;SDS011;58855;44.984;20.158;2022-07-23T01:43:50;18.20;;;9.88;;
55340;SDS011;58855;44.984;20.158;2022-07-23T01:46:16;26.15;;;11.05;;
55340;SDS011;58855;44.984;20.158;2022-07-23T01:48:42;30.17;;;13.75;;
55340;SDS011;58855;44.984;20.158;2022-07-23T01:51:09;28.38;;;12.57;;
55340;SDS011;58855;44.984;20.158;2022-07-23T01:53:35;34.95;;;14.15;;
55340;SDS011;58855;44.984;20.158;2022-07-23T01:56:01;27.92;;;13.38;;
55340;SDS011;58855;44.984;20.158;2022-07-23T01:58:28;23.40;;;11.80;;
55340;SDS011;58855;44.984;20.158;2022-07-23T02:00:54;27.17;;;11.98;;
55340;SDS011;58855;44.984;20.158;2022-07-23T02:03:21;27.10;;;13.07;;
55340;SDS011;58855;44.984;20.158;2022-07-23T02:05:48;29.02;;;10.95;;
55340;SDS011;58855;44.984;20.158;2022-07-23T02:08:14;33.40;;;13.13;;
55340;SDS011;58855;44.984;20.158;2022-07-23T02:10:40;24.20;;;10.70;;
55340;SDS011;58855;44.984;20.158;2022-07-23T02:13:06;35.20;;;12.32;;
55340;SDS011;58855;44.984;20.158;2022-07-23T02:15:32;30.40;;;12.63;;
55340;SDS011;58855;44.984;20.158;2022-07-23T02:17:58;27.60;;;12.68;;
55340;SDS011;58855;44.984;20.158;2022-07-23T02:20:25;31.33;;;15.02;;
55340;SDS011;58855;44.984;20.158;2022-07-23T02:22:51;34.28;;;15.35;;
55340;SDS011;58855;44.984;20.158;2022-07-23T02:25:17;39.38;;;17.15;;
55340;SDS011;58855;44.984;20.158;2022-07-23T02:27:43;38.38;;;14.15;;
55340;SDS011;58855;44.984;20.158;2022-07-23T02:30:10;38.72;;;14.63;;
55340;SDS011;58855;44.984;20.158;2022-07-23T02:32:36;34.95;;;14.40;;
55340;SDS011;58855;44.984;20.158;2022-07-23T02:35:04;38.20;;;14.48;;
55340;SDS011;58855;44.984;20.158;2022-07-23T02:37:30;29.67;;;13.45;;
55340;SDS011;58855;44.984;20.158;2022-07-23T02:39:56;28.83;;;14.13;;
55340;SDS011;58855;44.984;20.158;2022-07-23T02:42:23;33.72;;;14.15;;
55340;SDS011;58855;44.984;20.158;2022-07-23T02:44:49;29.80;;;12.23;;
55340;SDS011;58855;44.984;20.158;2022-07-23T02:47:16;23.17;;;10.43;;
55340;SDS011;58855;44.984;20.158;2022-07-23T02:49:42;23.45;;;10.10;;
55340;SDS011;58855;44.984;20.158;2022-07-23T02:52:08;19.88;;;9.52;;
55340;SDS011;58855;44.984;20.158;2022-07-23T02:54:35;25.25;;;8.68;;
55340;SDS011;58855;44.984;20.158;2022-07-23T02:57:01;20.30;;;9.20;;
55340;SDS011;58855;44.984;20.158;2022-07-23T02:59:28;20.65;;;8.15;;
55340;SDS011;58855;44.984;20.158;2022-07-23T03:01:54;23.05;;;9.75;;
55340;SDS011;58855;44.984;20.158;2022-07-23T03:04:20;21.92;;;9.65;;
55340;SDS011;58855;44.984;20.158;2022-07-23T03:06:46;23.63;;;10.02;;
55340;SDS011;58855;44.984;20.158;2022-07-23T03:09:12;20.70;;;10.20;;
55340;SDS011;58855;44.984;20.158;2022-07-23T03:11:38;27.15;;;10.18;;
55340;SDS011;58855;44.984;20.158;2022-07-23T03:14:04;23.20;;;9.75;;
55340;SDS011;58855;44.984;20.158;2022-07-23T03:16:31;25.98;;;10.23;;
55340;SDS011;58855;44.984;20.158;2022-07-23T03:18:57;23.90;;;9.98;;
55340;SDS011;58855;44.984;20.158;2022-07-23T03:21:23;23.02;;;10.68;;
55340;SDS011;58855;44.984;20.158;2022-07-23T03:23:50;20.75;;;10.55;;
55340;SDS011;58855;44.984;20.158;2022-07-23T03:26:16;25.58;;;12.13;;
55340;SDS011;58855;44.984;20.158;2022-07-23T03:28:42;24.13;;;10.82;;
55340;SDS011;58855;44.984;20.158;2022-07-23T03:31:08;22.10;;;11.30;;
55340;SDS011;58855;44.984;20.158;2022-07-23T03:33:34;19.05;;;10.05;;
55340;SDS011;58855;44.984;20.158;2022-07-23T03:36:01;20.23;;;10.73;;
55340;SDS011;58855;44.984;20.158;2022-07-23T03:38:27;22.58;;;9.52;;
55340;SDS011;58855;44.984;20.158;2022-07-23T03:40:53;18.42;;;10.07;;
55340;SDS011;58855;44.984;20.158;2022-07-23T03:43:19;22.30;;;10.98;;
55340;SDS011;58855;44.984;20.158;2022-07-23T03:45:45;20.30;;;9.70;;
55340;SDS011;58855;44.984;20.158;2022-07-23T03:48:11;28.35;;;10.70;;
55340;SDS011;58855;44.984;20.158;2022-07-23T03:50:37;18.38;;;10.00;;
55340;SDS011;58855;44.984;20.158;2022-07-23T03:53:03;17.65;;;9.43;;
55340;SDS011;58855;44.984;20.158;2022-07-23T03:55:29;26.10;;;10.25;;
55340;SDS011;58855;44.984;20.158;2022-07-23T03:57:55;23.50;;;10.48;;
55340;SDS011;58855;44.984;20.158;2022-07-23T04:00:21;22.55;;;10.82;;
55340;SDS011;58855;44.984;20.158;2022-07-23T04:02:48;20.63;;;10.80;;
55340;SDS011;58855;44.984;20.158;2022-07-23T04:05:14;20.95;;;10.70;;
55340;SDS011;58855;44.984;20.158;2022-07-23T04:07:40;22.08;;;11.18;;
55340;SDS011;58855;44.984;20.158;2022-07-23T04:10:06;19.02;;;11.05;;
55340;SDS011;58855;44.984;20.158;2022-07-23T04:12:32;26.40;;;10.80;;
55340;SDS011;58855;44.984;20.158;2022-07-23T04:14:59;25.85;;;11.00;;
55340;SDS011;58855;44.984;20.158;2022-07-23T04:17:25;24.77;;;12.70;;
55340;SDS011;58855;44.984;20.158;2022-07-23T04:19:51;23.08;;;12.68;;
55340;SDS011;58855;44.984;20.158;2022-07-23T04:22:17;33.05;;;13.32;;
55340;SDS011;58855;44.984;20.158;2022-07-23T04:24:44;31.63;;;13.07;;
55340;SDS011;58855;44.984;20.158;2022-07-23T04:27:10;28.60;;;11.65;;
55340;SDS011;58855;44.984;20.158;2022-07-23T04:29:36;38.33;;;14.27;;
55340;SDS011;58855;44.984;20.158;2022-07-23T04:32:02;29.23;;;13.40;;
55340;SDS011;58855;44.984;20.158;2022-07-23T04:34:28;27.33;;;14.27;;
55340;SDS011;58855;44.984;20.158;2022-07-23T04:36:54;23.60;;;13.63;;
55340;SDS011;58855;44.984;20.158;2022-07-23T04:39:21;25.02;;;11.95;;
55340;SDS011;58855;44.984;20.158;2022-07-23T04:41:47;23.98;;;13.25;;
55340;SDS011;58855;44.984;20.158;2022-07-23T04:44:13;26.08;;;10.80;;
55340;SDS011;58855;44.984;20.158;2022-07-23T04:46:39;21.67;;;10.63;;
55340;SDS011;58855;44.984;20.158;2022-07-23T04:49:05;18.98;;;9.32;;
55340;SDS011;58855;44.984;20.158;2022-07-23T04:51:31;19.23;;;9.43;;
55340;SDS011;58855;44.984;20.158;2022-07-23T04:53:57;17.40;;;8.60;;
55340;SDS011;58855;44.984;20.158;2022-07-23T04:56:24;19.80;;;8.43;;
55340;SDS011;58855;44.984;20.158;2022-07-23T04:58:50;15.48;;;8.50;;
55340;SDS011;58855;44.984;20.158;2022-07-23T05:01:16;16.75;;;7.50;;
55340;SDS011;58855;44.984;20.158;2022-07-23T05:03:42;19.60;;;8.77;;
55340;SDS011;58855;44.984;20.158;2022-07-23T05:06:08;17.67;;;8.70;;
55340;SDS011;58855;44.984;20.158;2022-07-23T05:08:34;17.20;;;8.48;;
55340;SDS011;58855;44.984;20.158;2022-07-23T05:11:00;20.38;;;7.90;;
55340;SDS011;58855;44.984;20.158;2022-07-23T05:13:26;15.20;;;7.90;;
55340;SDS011;58855;44.984;20.158;2022-07-23T05:15:52;28.23;;;8.30;;
55340;SDS011;58855;44.984;20.158;2022-07-23T05:18:19;25.88;;;9.25;;
55340;SDS011;58855;44.984;20.158;2022-07-23T05:20:45;19.70;;;9.48;;
55340;SDS011;58855;44.984;20.158;2022-07-23T05:23:11;17.15;;;8.90;;
55340;SDS011;58855;44.984;20.158;2022-07-23T05:25:37;20.92;;;8.77;;
55340;SDS011;58855;44.984;20.158;2022-07-23T05:28:03;25.02;;;9.80;;
55340;SDS011;58855;44.984;20.158;2022-07-23T05:30:29;19.58;;;10.00;;
55340;SDS011;58855;44.984;20.158;2022-07-23T05:32:55;21.83;;;8.55;;
55340;SDS011;58855;44.984;20.158;2022-07-23T05:35:21;26.25;;;9.25;;
55340;SDS011;58855;44.984;20.158;2022-07-23T05:37:47;21.15;;;8.60;;
55340;SDS011;58855;44.984;20.158;2022-07-23T05:40:14;18.60;;;9.52;;
55340;SDS011;58855;44.984;20.158;2022-07-23T05:42:40;17.63;;;8.65;;
55340;SDS011;58855;44.984;20.158;2022-07-23T05:45:07;14.50;;;8.40;;
55340;SDS011;58855;44.984;20.158;2022-07-23T05:47:43;17.23;;;7.50;;
55340;SDS011;58855;44.984;20.158;2022-07-23T05:50:10;14.85;;;7.80;;
55340;SDS011;58855;44.984;20.158;2022-07-23T05:52:36;11.98;;;7.40;;
55340;SDS011;58855;44.984;20.158;2022-07-23T05:55:03;19.00;;;7.63;;
55340;SDS011;58855;44.984;20.158;2022-07-23T05:57:29;26.83;;;8.48;;
55340;SDS011;58855;44.984;20.158;2022-07-23T05:59:56;15.15;;;6.70;;
55340;SDS011;58855;44.984;20.158;2022-07-23T06:02:22;20.98;;;7.97;;
55340;SDS011;58855;44.984;20.158;2022-07-23T06:04:48;17.55;;;6.82;;
55340;SDS011;58855;44.984;20.158;2022-07-23T06:07:14;22.58;;;7.20;;
55340;SDS011;58855;44.984;20.158;2022-07-23T06:09:40;18.80;;;7.05;;
55340;SDS011;58855;44.984;20.158;2022-07-23T06:12:06;16.88;;;5.93;;
55340;SDS011;58855;44.984;20.158;2022-07-23T06:14:33;17.67;;;6.20;;
55340;SDS011;58855;44.984;20.158;2022-07-23T06:16:59;15.63;;;5.80;;
55340;SDS011;58855;44.984;20.158;2022-07-23T06:19:25;22.92;;;7.20;;
55340;SDS011;58855;44.984;20.158;2022-07-23T06:21:51;16.95;;;7.40;;
55340;SDS011;58855;44.984;20.158;2022-07-23T06:24:17;17.58;;;8.02;;
55340;SDS011;58855;44.984;20.158;2022-07-23T06:26:43;15.80;;;5.88;;
55340;SDS011;58855;44.984;20.158;2022-07-23T06:29:10;19.20;;;5.82;;
55340;SDS011;58855;44.984;20.158;2022-07-23T06:31:36;12.98;;;5.88;;
55340;SDS011;58855;44.984;20.158;2022-07-23T06:34:02;13.82;;;6.43;;
55340;SDS011;58855;44.984;20.158;2022-07-23T06:36:28;15.63;;;5.97;;
55340;SDS011;58855;44.984;20.158;2022-07-23T06:38:54;11.65;;;5.50;;
55340;SDS011;58855;44.984;20.158;2022-07-23T06:41:20;12.18;;;5.60;;
55340;SDS011;58855;44.984;20.158;2022-07-23T06:43:48;21.33;;;10.10;;
55340;SDS011;58855;44.984;20.158;2022-07-23T06:46:14;15.32;;;5.57;;
55340;SDS011;58855;44.984;20.158;2022-07-23T06:48:40;17.50;;;5.47;;
55340;SDS011;58855;44.984;20.158;2022-07-23T06:51:06;12.82;;;5.30;;
55340;SDS011;58855;44.984;20.158;2022-07-23T06:53:32;15.20;;;7.38;;
55340;SDS011;58855;44.984;20.158;2022-07-23T06:55:58;18.17;;;9.30;;
55340;SDS011;58855;44.984;20.158;2022-07-23T06:58:24;27.95;;;10.85;;
55340;SDS011;58855;44.984;20.158;2022-07-23T07:00:50;12.45;;;6.38;;
55340;SDS011;58855;44.984;20.158;2022-07-23T07:03:17;12.85;;;5.55;;
55340;SDS011;58855;44.984;20.158;2022-07-23T07:05:43;10.18;;;4.95;;
55340;SDS011;58855;44.984;20.158;2022-07-23T07:08:09;12.27;;;4.82;;
55340;SDS011;58855;44.984;20.158;2022-07-23T07:10:36;13.18;;;5.03;;
55340;SDS011;58855;44.984;20.158;2022-07-23T07:13:02;12.70;;;5.22;;
55340;SDS011;58855;44.984;20.158;2022-07-23T07:15:28;13.20;;;5.47;;
55340;SDS011;58855;44.984;20.158;2022-07-23T07:17:54;8.35;;;4.90;;
55340;SDS011;58855;44.984;20.158;2022-07-23T07:20:20;13.85;;;4.72;;
55340;SDS011;58855;44.984;20.158;2022-07-23T07:22:47;17.42;;;4.45;;
55340;SDS011;58855;44.984;20.158;2022-07-23T07:25:13;13.80;;;4.80;;
55340;SDS011;58855;44.984;20.158;2022-07-23T07:27:39;14.05;;;5.00;;
55340;SDS011;58855;44.984;20.158;2022-07-23T07:30:05;13.95;;;5.13;;
55340;SDS011;58855;44.984;20.158;2022-07-23T07:32:32;10.52;;;5.18;;
55340;SDS011;58855;44.984;20.158;2022-07-23T07:34:58;12.73;;;4.57;;
55340;SDS011;58855;44.984;20.158;2022-07-23T07:37:24;10.77;;;5.30;;
55340;SDS011;58855;44.984;20.158;2022-07-23T07:39:50;15.25;;;4.53;;
55340;SDS011;58855;44.984;20.158;2022-07-23T07:42:16;10.00;;;4.60;;
55340;SDS011;58855;44.984;20.158;2022-07-23T07:44:43;13.45;;;5.30;;
55340;SDS011;58855;44.984;20.158;2022-07-23T07:47:09;13.23;;;5.07;;
55340;SDS011;58855;44.984;20.158;2022-07-23T07:49:35;14.45;;;4.75;;
55340;SDS011;58855;44.984;20.158;2022-07-23T07:52:01;13.20;;;4.70;;
55340;SDS011;58855;44.984;20.158;2022-07-23T07:54:27;9.23;;;4.20;;
55340;SDS011;58855;44.984;20.158;2022-07-23T07:56:53;9.18;;;5.05;;
55340;SDS011;58855;44.984;20.158;2022-07-23T07:59:19;9.90;;;4.28;;
55340;SDS011;58855;44.984;20.158;2022-07-23T08:01:45;7.45;;;4.00;;
55340;SDS011;58855;44.984;20.158;2022-07-23T08:04:11;10.27;;;4.15;;
55340;SDS011;58855;44.984;20.158;2022-07-23T08:06:37;13.07;;;4.57;;
55340;SDS011;58855;44.984;20.158;2022-07-23T08:09:04;11.93;;;5.38;;
55340;SDS011;58855;44.984;20.158;2022-07-23T08:11:30;10.68;;;4.20;;
55340;SDS011;58855;44.984;20.158;2022-07-23T08:13:56;10.90;;;4.30;;
55340;SDS011;58855;44.984;20.158;2022-07-23T08:16:22;9.80;;;4.30;;
55340;SDS011;58855;44.984;20.158;2022-07-23T08:18:48;8.45;;;3.83;;
55340;SDS011;58855;44.984;20.158;2022-07-23T08:21:14;13.80;;;5.15;;
55340;SDS011;58855;44.984;20.158;2022-07-23T08:23:40;8.80;;;3.83;;
55340;SDS011;58855;44.984;20.158;2022-07-23T08:26:06;8.82;;;3.92;;
55340;SDS011;58855;44.984;20.158;2022-07-23T08:28:33;14.35;;;4.53;;
55340;SDS011;58855;44.984;20.158;2022-07-23T08:30:59;11.65;;;4.18;;
55340;SDS011;58855;44.984;20.158;2022-07-23T08:33:25;9.50;;;3.88;;
55340;SDS011;58855;44.984;20.158;2022-07-23T08:35:52;12.68;;;4.68;;
55340;SDS011;58855;44.984;20.158;2022-07-23T08:38:20;9.43;;;3.60;;
55340;SDS011;58855;44.984;20.158;2022-07-23T08:40:47;9.35;;;3.75;;
55340;SDS011;58855;44.984;20.158;2022-07-23T08:43:20;9.65;;;3.70;;
55340;SDS011;58855;44.984;20.158;2022-07-23T08:45:48;8.15;;;3.67;;
55340;SDS011;58855;44.984;20.158;2022-07-23T08:48:15;8.95;;;4.40;;
55340;SDS011;58855;44.984;20.158;2022-07-23T08:50:42;8.13;;;3.70;;
55340;SDS011;58855;44.984;20.158;2022-07-23T08:53:09;9.32;;;3.88;;
55340;SDS011;58855;44.984;20.158;2022-07-23T08:55:36;9.13;;;4.07;;
55340;SDS011;58855;44.984;20.158;2022-07-23T08:58:02;11.10;;;3.83;;
55340;SDS011;58855;44.984;20.158;2022-07-23T09:00:29;7.93;;;3.65;;
55340;SDS011;58855;44.984;20.158;2022-07-23T09:02:55;11.20;;;4.22;;
55340;SDS011;58855;44.984;20.158;2022-07-23T09:05:22;7.88;;;3.60;;
55340;SDS011;58855;44.984;20.158;2022-07-23T09:10:50;7.80;;;3.75;;
55340;SDS011;58855;44.984;20.158;2022-07-23T09:13:23;12.93;;;4.32;;
55340;SDS011;58855;44.984;20.158;2022-07-23T09:15:50;5.80;;;3.10;;
55340;SDS011;58855;44.984;20.158;2022-07-23T09:18:16;7.88;;;3.38;;
55340;SDS011;58855;44.984;20.158;2022-07-23T09:20:45;9.65;;;3.63;;
55340;SDS011;58855;44.984;20.158;2022-07-23T09:23:12;6.47;;;3.90;;
55340;SDS011;58855;44.984;20.158;2022-07-23T09:25:38;10.35;;;4.13;;
55340;SDS011;58855;44.984;20.158;2022-07-23T09:28:04;15.50;;;3.72;;
55340;SDS011;58855;44.984;20.158;2022-07-23T09:30:32;8.68;;;3.40;;
55340;SDS011;58855;44.984;20.158;2022-07-23T09:33:11;7.78;;;3.35;;
55340;SDS011;58855;44.984;20.158;2022-07-23T09:35:53;6.85;;;3.10;;
55340;SDS011;58855;44.984;20.158;2022-07-23T09:38:21;7.35;;;3.30;;
55340;SDS011;58855;44.984;20.158;2022-07-23T09:41:05;5.25;;;3.08;;
55340;SDS011;58855;44.984;20.158;2022-07-23T09:43:31;9.00;;;3.42;;
55340;SDS011;58855;44.984;20.158;2022-07-23T09:48:42;6.35;;;2.85;;
55340;SDS011;58855;44.984;20.158;2022-07-23T09:51:08;7.32;;;4.10;;
55340;SDS011;58855;44.984;20.158;2022-07-23T09:53:34;7.40;;;2.90;;
55340;SDS011;58855;44.984;20.158;2022-07-23T09:56:00;7.78;;;2.60;;
55340;SDS011;58855;44.984;20.158;2022-07-23T09:58:27;5.50;;;2.90;;
55340;SDS011;58855;44.984;20.158;2022-07-23T10:00:53;6.35;;;3.00;;
55340;SDS011;58855;44.984;20.158;2022-07-23T10:03:19;13.70;;;3.85;;
55340;SDS011;58855;44.984;20.158;2022-07-23T10:05:46;8.35;;;2.88;;
55340;SDS011;58855;44.984;20.158;2022-07-23T10:08:12;10.43;;;3.53;;
55340;SDS011;58855;44.984;20.158;2022-07-23T10:10:39;6.72;;;3.03;;
55340;SDS011;58855;44.984;20.158;2022-07-23T10:13:06;9.57;;;3.30;;
55340;SDS011;58855;44.984;20.158;2022-07-23T10:15:51;10.38;;;3.75;;
55340;SDS011;58855;44.984;20.158;2022-07-23T10:18:17;8.55;;;3.80;;
55340;SDS011;58855;44.984;20.158;2022-07-23T10:20:44;12.88;;;3.63;;
55340;SDS011;58855;44.984;20.158;2022-07-23T10:23:19;10.27;;;3.60;;
55340;SDS011;58855;44.984;20.158;2022-07-23T10:25:49;11.90;;;4.75;;
55340;SDS011;58855;44.984;20.158;2022-07-23T10:36:07;7.70;;;3.30;;
55340;SDS011;58855;44.984;20.158;2022-07-23T10:38:45;7.78;;;2.70;;
55340;SDS011;58855;44.984;20.158;2022-07-23T10:41:13;9.02;;;3.47;;
55340;SDS011;58855;44.984;20.158;2022-07-23T10:43:40;9.40;;;2.95;;
55340;SDS011;58855;44.984;20.158;2022-07-23T10:46:23;5.78;;;3.78;;
55340;SDS011;58855;44.984;20.158;2022-07-23T10:52:15;12.32;;;2.92;;
55340;SDS011;58855;44.984;20.158;2022-07-23T10:54:29;6.47;;;2.80;;
55340;SDS011;58855;44.984;20.158;2022-07-23T10:59:21;6.13;;;3.03;;
55340;SDS011;58855;44.984;20.158;2022-07-23T11:01:47;7.90;;;3.10;;
55340;SDS011;58855;44.984;20.158;2022-07-23T11:04:13;7.35;;;2.78;;
55340;SDS011;58855;44.984;20.158;2022-07-23T11:12:26;7.57;;;3.10;;
55340;SDS011;58855;44.984;20.158;2022-07-23T11:17:22;7.88;;;3.00;;
55340;SDS011;58855;44.984;20.158;2022-07-23T11:22:34;4.55;;;2.58;;
55340;SDS011;58855;44.984;20.158;2022-07-23T11:25:00;12.32;;;3.35;;
55340;SDS011;58855;44.984;20.158;2022-07-23T11:27:39;10.20;;;3.60;;
55340;SDS011;58855;44.984;20.158;2022-07-23T11:30:10;7.03;;;3.30;;
55340;SDS011;58855;44.984;20.158;2022-07-23T11:32:38;11.88;;;4.60;;
55340;SDS011;58855;44.984;20.158;2022-07-23T11:37:46;13.63;;;3.08;;
55340;SDS011;58855;44.984;20.158;2022-07-23T11:40:14;12.40;;;4.00;;
55340;SDS011;58855;44.984;20.158;2022-07-23T11:42:57;10.13;;;4.45;;
55340;SDS011;58855;44.984;20.158;2022-07-23T11:47:49;12.10;;;3.33;;
55340;SDS011;58855;44.984;20.158;2022-07-23T11:50:16;6.50;;;3.38;;
55340;SDS011;58855;44.984;20.158;2022-07-23T11:52:42;11.80;;;3.17;;
55340;SDS011;58855;44.984;20.158;2022-07-23T11:55:09;9.52;;;3.40;;
55340;SDS011;58855;44.984;20.158;2022-07-23T11:57:36;10.88;;;3.92;;
55340;SDS011;58855;44.984;20.158;2022-07-23T12:00:13;9.85;;;3.78;;
55340;SDS011;58855;44.984;20.158;2022-07-23T12:02:41;11.40;;;3.33;;
55340;SDS011;58855;44.984;20.158;2022-07-23T12:05:10;10.38;;;3.63;;
55340;SDS011;58855;44.984;20.158;2022-07-23T12:07:38;8.25;;;3.40;;
55340;SDS011;58855;44.984;20.158;2022-07-23T12:12:40;10.07;;;4.45;;
55340;SDS011;58855;44.984;20.158;2022-07-23T12:15:06;7.55;;;3.53;;
55340;SDS011;58855;44.984;20.158;2022-07-23T12:17:34;11.60;;;3.42;;
55340;SDS011;58855;44.984;20.158;2022-07-23T12:20:00;12.90;;;5.60;;
55340;SDS011;58855;44.984;20.158;2022-07-23T12:22:42;7.00;;;3.28;;
55340;SDS011;58855;44.984;20.158;2022-07-23T12:27:38;8.88;;;3.67;;
55340;SDS011;58855;44.984;20.158;2022-07-23T12:30:17;6.18;;;3.70;;
55340;SDS011;58855;44.984;20.158;2022-07-23T12:32:44;7.22;;;3.33;;
55340;SDS011;58855;44.984;20.158;2022-07-23T12:35:11;7.72;;;3.40;;
55340;SDS011;58855;44.984;20.158;2022-07-23T12:37:37;10.23;;;3.30;;
55340;SDS011;58855;44.984;20.158;2022-07-23T12:42:51;7.20;;;3.60;;
55340;SDS011;58855;44.984;20.158;2022-07-23T12:45:18;9.38;;;3.90;;
55340;SDS011;58855;44.984;20.158;2022-07-23T12:47:51;9.07;;;3.80;;
55340;SDS011;58855;44.984;20.158;2022-07-23T12:50:31;10.05;;;3.40;;
55340;SDS011;58855;44.984;20.158;2022-07-23T12:53:04;5.88;;;3.42;;
55340;SDS011;58855;44.984;20.158;2022-07-23T12:55:30;6.38;;;3.53;;
55340;SDS011;58855;44.984;20.158;2022-07-23T12:58:07;8.13;;;3.80;;
55340;SDS011;58855;44.984;20.158;2022-07-23T13:03:37;11.38;;;3.78;;
55340;SDS011;58855;44.984;20.158;2022-07-23T13:06:04;9.43;;;3.90;;
55340;SDS011;58855;44.984;20.158;2022-07-23T13:08:31;6.60;;;3.58;;
55340;SDS011;58855;44.984;20.158;2022-07-23T13:10:58;9.35;;;4.45;;
55340;SDS011;58855;44.984;20.158;2022-07-23T13:13:25;7.78;;;3.90;;
55340;SDS011;58855;44.984;20.158;2022-07-23T13:15:51;6.88;;;3.53;;
55340;SDS011;58855;44.984;20.158;2022-07-23T13:18:18;17.90;;;4.05;;
55340;SDS011;58855;44.984;20.158;2022-07-23T13:20:45;6.65;;;3.63;;
55340;SDS011;58855;44.984;20.158;2022-07-23T13:23:12;8.38;;;3.70;;
55340;SDS011;58855;44.984;20.158;2022-07-23T13:25:38;8.45;;;4.38;;
55340;SDS011;58855;44.984;20.158;2022-07-23T13:28:04;11.95;;;3.88;;
55340;SDS011;58855;44.984;20.158;2022-07-23T13:30:31;10.07;;;4.20;;
55340;SDS011;58855;44.984;20.158;2022-07-23T13:32:57;6.68;;;4.03;;
55340;SDS011;58855;44.984;20.158;2022-07-23T13:35:23;9.68;;;4.20;;
55340;SDS011;58855;44.984;20.158;2022-07-23T13:37:50;8.18;;;4.40;;
55340;SDS011;58855;44.984;20.158;2022-07-23T13:40:16;8.57;;;3.85;;
55340;SDS011;58855;44.984;20.158;2022-07-23T13:42:42;8.98;;;4.18;;
55340;SDS011;58855;44.984;20.158;2022-07-23T13:45:10;8.68;;;3.80;;
55340;SDS011;58855;44.984;20.158;2022-07-23T13:47:36;7.93;;;3.88;;
55340;SDS011;58855;44.984;20.158;2022-07-23T13:50:02;8.95;;;4.72;;
55340;SDS011;58855;44.984;20.158;2022-07-23T13:52:29;8.65;;;4.03;;
55340;SDS011;58855;44.984;20.158;2022-07-23T13:54:55;6.65;;;4.10;;
55340;SDS011;58855;44.984;20.158;2022-07-23T13:57:21;6.47;;;3.92;;
55340;SDS011;58855;44.984;20.158;2022-07-23T13:59:47;7.35;;;3.50;;
55340;SDS011;58855;44.984;20.158;2022-07-23T14:02:14;8.45;;;4.00;;
55340;SDS011;58855;44.984;20.158;2022-07-23T14:04:41;11.93;;;4.13;;
55340;SDS011;58855;44.984;20.158;2022-07-23T14:07:08;8.77;;;4.25;;
55340;SDS011;58855;44.984;20.158;2022-07-23T14:09:34;6.22;;;4.10;;
55340;SDS011;58855;44.984;20.158;2022-07-23T14:12:00;8.27;;;3.60;;
55340;SDS011;58855;44.984;20.158;2022-07-23T14:14:26;8.48;;;3.97;;
55340;SDS011;58855;44.984;20.158;2022-07-23T14:16:52;11.75;;;5.15;;
55340;SDS011;58855;44.984;20.158;2022-07-23T14:19:18;8.32;;;3.85;;
55340;SDS011;58855;44.984;20.158;2022-07-23T14:21:44;12.25;;;8.52;;
55340;SDS011;58855;44.984;20.158;2022-07-23T14:24:14;9.98;;;6.50;;
55340;SDS011;58855;44.984;20.158;2022-07-23T14:26:40;10.68;;;5.07;;
55340;SDS011;58855;44.984;20.158;2022-07-23T14:29:06;9.80;;;4.35;;
55340;SDS011;58855;44.984;20.158;2022-07-23T14:31:33;12.45;;;8.40;;
55340;SDS011;58855;44.984;20.158;2022-07-23T14:33:59;10.90;;;5.15;;
55340;SDS011;58855;44.984;20.158;2022-07-23T14:36:25;9.93;;;4.88;;
55340;SDS011;58855;44.984;20.158;2022-07-23T14:38:52;6.70;;;4.70;;
55340;SDS011;58855;44.984;20.158;2022-07-23T14:41:18;7.30;;;4.10;;
55340;SDS011;58855;44.984;20.158;2022-07-23T14:43:44;7.60;;;4.57;;
55340;SDS011;58855;44.984;20.158;2022-07-23T14:46:11;13.20;;;5.72;;
55340;SDS011;58855;44.984;20.158;2022-07-23T14:48:38;10.48;;;4.50;;
55340;SDS011;58855;44.984;20.158;2022-07-23T14:51:04;12.25;;;4.10;;
55340;SDS011;58855;44.984;20.158;2022-07-23T14:53:30;17.60;;;4.68;;
55340;SDS011;58855;44.984;20.158;2022-07-23T14:55:56;13.30;;;4.10;;
55340;SDS011;58855;44.984;20.158;2022-07-23T14:58:23;12.52;;;4.10;;
55340;SDS011;58855;44.984;20.158;2022-07-23T15:00:49;7.97;;;4.03;;
55340;SDS011;58855;44.984;20.158;2022-07-23T15:03:15;8.20;;;4.22;;
55340;SDS011;58855;44.984;20.158;2022-07-23T15:05:41;7.25;;;3.95;;
55340;SDS011;58855;44.984;20.158;2022-07-23T15:08:08;9.35;;;4.63;;